LFOT/TUF METAR and TAF weather

Enter ICAO airport designator
Station Type Date Time Source
LFOT METAR 2021/03/06 02:00 UTC NOAA

LFOT 060200Z AUTO 05009KT 010V070 CAVOK 02/M03 Q1027 NOSIG


Station Type Date Time Source
LFOT Decoded METAR 2021/03/06 02:00 UTC NOAA

Tours, France (LFOT) 47-27N 000-43E 112M
Mar 05, 2021 - 09:00 PM EST / 2021.03.06 0200 UTC
Wind: from the NE (050 degrees) at 10 MPH (9 KT) (direction variable):0
Visibility: greater than 7 mile(s):0
Temperature: 35 F (2 C)
Windchill: 26 F (-3 C):1
Dew Point: 26 F (-3 C)
Relative Humidity: 69%
Pressure (altimeter): 30.33 in. Hg (1027 hPa)
ob: LFOT 060200Z AUTO 05009KT 010V070 CAVOK 02/M03 Q1027 NOSIG
cycle: 2

Station Type Date Time Source
LFOT TAF 2021/03/05 18:21 UTC NOAA

TAF TAF LFOT 051700Z 0518/0618 04010KT 9999 BKN040

Example: see airport list